createdAt,value
2019-04-21T00:00:45.589Z,99.90
2019-04-21T00:03:18.143Z,99.90
2019-04-21T00:06:03.289Z,99.90
2019-04-21T00:08:35.372Z,99.90
2019-04-21T00:11:11.034Z,99.90
2019-04-21T00:13:32.614Z,99.90
2019-04-21T00:15:58.974Z,99.90
2019-04-21T00:18:50.635Z,99.90
2019-04-21T00:21:26.912Z,99.90
2019-04-21T00:24:20.923Z,99.90
2019-04-21T00:27:18.640Z,99.90
2019-04-21T00:29:41.085Z,99.90
2019-04-21T00:32:03.355Z,99.90
2019-04-21T00:34:21.591Z,99.90
2019-04-21T00:37:03.060Z,99.90
2019-04-21T00:42:16.869Z,99.90
2019-04-21T00:44:39.857Z,99.90
2019-04-21T00:47:25.115Z,99.90
2019-04-21T00:49:56.651Z,99.90
2019-04-21T00:52:56.222Z,99.90
2019-04-21T00:55:35.489Z,99.90
2019-04-21T00:58:03.715Z,99.90
2019-04-21T01:00:32.411Z,99.90
2019-04-21T01:03:09.316Z,99.90
2019-04-21T01:05:42.774Z,99.90
2019-04-21T01:08:11.514Z,99.90
2019-04-21T01:10:35.851Z,99.90
2019-04-21T01:13:18.758Z,99.90
2019-04-21T01:15:48.959Z,99.90
2019-04-21T01:18:16.765Z,99.90
2019-04-21T01:20:29.526Z,99.90
2019-04-21T01:23:00.255Z,99.90
2019-04-21T01:25:40.439Z,99.90
2019-04-21T01:28:19.905Z,99.90
2019-04-21T01:33:32.508Z,99.90
2019-04-21T01:36:02.990Z,99.90
2019-04-21T01:38:34.237Z,99.90
2019-04-21T01:41:09.942Z,99.90
2019-04-21T01:43:38.413Z,99.90
2019-04-21T01:46:05.546Z,99.90
2019-04-21T01:48:37.490Z,99.90
2019-04-21T01:51:08.517Z,99.90
2019-04-21T01:54:03.509Z,99.90
2019-04-21T01:56:55.224Z,99.90
2019-04-21T01:59:31.990Z,99.90
2019-04-21T02:02:05.135Z,99.90
2019-04-21T02:04:41.844Z,99.90
2019-04-21T02:07:11.269Z,99.90
2019-04-21T02:09:44.587Z,99.90
2019-04-21T02:12:20.945Z,99.90
2019-04-21T02:15:00.776Z,99.90
2019-04-21T02:17:16.407Z,99.90
2019-04-21T02:19:45.830Z,99.90
2019-04-21T02:22:28.066Z,99.90
2019-04-21T02:25:03.063Z,99.90
2019-04-21T02:27:31.123Z,99.90
2019-04-21T02:29:59.799Z,99.90
2019-04-21T02:32:44.320Z,99.90
2019-04-21T02:37:55.467Z,99.90
2019-04-21T02:40:25.724Z,99.90
2019-04-21T02:42:56.011Z,99.90
2019-04-21T02:45:23.612Z,99.90
2019-04-21T02:48:06.309Z,99.90
2019-04-21T02:50:26.073Z,99.90
2019-04-21T03:03:32.031Z,99.90
2019-04-21T03:08:50.086Z,99.90
2019-04-21T03:11:12.288Z,99.90
2019-04-21T03:13:57.319Z,99.90
2019-04-21T03:18:56.874Z,99.90
2019-04-21T03:23:57.426Z,99.90
2019-04-21T03:26:40.340Z,99.90
2019-04-21T03:29:05.839Z,99.90
2019-04-21T03:39:10.304Z,99.90
2019-04-21T03:41:48.346Z,99.90
2019-04-21T03:44:16.647Z,99.90
2019-04-21T03:46:47.406Z,99.90
2019-04-21T03:51:54.960Z,99.90
2019-04-21T03:54:28.326Z,99.90
2019-04-21T03:57:11.421Z,99.90
2019-04-21T03:59:17.814Z,99.90
2019-04-21T04:02:24.425Z,99.90
2019-04-21T04:05:07.306Z,99.90
2019-04-21T04:07:59.059Z,99.90
2019-04-21T04:10:24.525Z,99.90
2019-04-21T04:12:52.667Z,99.90
2019-04-21T04:15:31.219Z,99.90
2019-04-21T04:17:54.680Z,99.90
2019-04-21T04:20:30.283Z,99.90
2019-04-21T04:23:02.794Z,99.90
2019-04-21T04:28:10.174Z,99.90
2019-04-21T04:30:38.225Z,99.90
2019-04-21T04:33:07.886Z,99.90
2019-04-21T04:35:52.408Z,99.90
2019-04-21T04:38:29.498Z,99.90
2019-04-21T04:43:48.019Z,99.90
2019-04-21T04:45:58.903Z,99.90
2019-04-21T04:48:37.519Z,99.90
2019-04-21T04:51:02.033Z,99.90
2019-04-21T04:53:48.779Z,99.90
2019-04-21T04:56:15.810Z,99.90
2019-04-21T04:59:10.790Z,99.90
2019-04-21T05:01:21.614Z,97.10
2019-04-21T05:03:49.010Z,94.80
2019-04-21T05:09:13.061Z,93.40
2019-04-21T05:19:14.635Z,86.50
2019-04-21T05:21:55.365Z,82.00
2019-04-21T05:24:13.633Z,79.10
2019-04-21T05:26:43.429Z,75.90
2019-04-21T05:29:09.053Z,73.90
2019-04-21T05:32:00.394Z,71.90
2019-04-21T05:34:31.866Z,69.40
2019-04-21T05:37:43.716Z,68.30
2019-04-21T05:40:10.594Z,70.70
2019-04-21T05:42:45.874Z,67.80
2019-04-21T05:45:22.541Z,65.10
2019-04-21T05:48:13.468Z,61.50
2019-04-21T05:50:30.587Z,59.90
2019-04-21T05:53:00.864Z,59.60
2019-04-21T05:55:46.098Z,59.60
2019-04-21T05:58:08.633Z,59.80
2019-04-21T06:03:23.159Z,57.90
2019-04-21T06:08:28.615Z,55.50
2019-04-21T06:13:40.715Z,55.90
2019-04-21T06:16:03.903Z,55.40
2019-04-21T06:18:44.502Z,53.50
2019-04-21T06:21:05.599Z,53.40
2019-04-21T06:23:35.974Z,52.40
2019-04-21T06:28:46.645Z,53.00
2019-04-21T06:31:59.282Z,52.60
2019-04-21T06:33:50.718Z,52.90
2019-04-21T06:36:47.073Z,50.90
2019-04-21T06:39:13.746Z,50.80
2019-04-21T06:41:34.371Z,50.30
2019-04-21T06:44:12.862Z,50.50
2019-04-21T06:46:50.323Z,50.70
2019-04-21T06:49:25.053Z,48.40
2019-04-21T06:51:43.595Z,48.20
2019-04-21T06:54:14.539Z,47.20
2019-04-21T06:56:51.582Z,49.80
2019-04-21T06:59:19.116Z,49.70
2019-04-21T07:01:59.838Z,46.40
2019-04-21T07:04:25.432Z,45.60
2019-04-21T07:09:31.105Z,46.70
2019-04-21T07:12:02.289Z,45.00
2019-04-21T07:14:50.034Z,45.00
2019-04-21T07:17:06.511Z,45.20
2019-04-21T07:19:42.649Z,46.20
2019-04-21T07:22:12.617Z,46.20
2019-04-21T07:24:46.262Z,45.70
2019-04-21T07:27:15.237Z,44.70
2019-04-21T07:29:47.558Z,45.90
2019-04-21T07:32:19.217Z,45.90
2019-04-21T07:34:52.270Z,44.10
2019-04-21T07:37:25.538Z,43.60
2019-04-21T07:39:53.130Z,43.60
2019-04-21T07:42:18.514Z,43.90
2019-04-21T07:44:53.463Z,44.60
2019-04-21T07:47:44.524Z,45.50
2019-04-21T07:50:20.564Z,45.30
2019-04-21T07:53:01.026Z,44.80
2019-04-21T07:57:54.856Z,43.70
2019-04-21T08:00:43.468Z,43.20
2019-04-21T08:03:19.492Z,43.10
2019-04-21T08:05:53.508Z,43.60
2019-04-21T08:08:01.583Z,43.40
2019-04-21T08:10:37.798Z,42.40
2019-04-21T08:13:18.829Z,42.50
2019-04-21T08:15:44.250Z,41.70
2019-04-21T08:18:20.351Z,41.50
2019-04-21T08:20:48.050Z,42.20
2019-04-21T08:23:20.314Z,40.70
2019-04-21T08:26:03.266Z,38.50
2019-04-21T08:28:27.646Z,41.40
2019-04-21T08:31:14.157Z,40.60
2019-04-21T08:33:50.326Z,37.90
2019-04-21T08:38:36.243Z,41.40
2019-04-21T08:41:08.198Z,38.70
2019-04-21T08:46:13.711Z,37.80
2019-04-21T08:48:45.094Z,36.40
2019-04-21T08:53:56.456Z,35.90
2019-04-21T08:56:37.190Z,35.80
2019-04-21T08:59:30.935Z,35.10
2019-04-21T09:02:18.245Z,33.50
2019-04-21T09:04:50.419Z,34.90
2019-04-21T09:09:54.690Z,40.60
2019-04-21T09:12:21.175Z,36.40
2019-04-21T09:14:55.344Z,33.70
2019-04-21T09:17:20.546Z,36.10
2019-04-21T09:20:08.700Z,35.60
2019-04-21T09:22:29.764Z,36.20
2019-04-21T09:25:01.618Z,37.10
2019-04-21T09:27:31.928Z,37.60
2019-04-21T09:29:53.961Z,36.00
2019-04-21T09:32:23.857Z,37.50
2019-04-21T09:34:52.751Z,37.10
2019-04-21T09:37:35.316Z,36.50
2019-04-21T09:39:57.419Z,37.80
2019-04-21T09:42:36.015Z,38.10
2019-04-21T09:45:03.154Z,39.10
2019-04-21T09:47:41.266Z,36.30
2019-04-21T09:50:05.213Z,39.20
2019-04-21T09:52:41.832Z,34.20
2019-04-21T09:55:13.927Z,38.10
2019-04-21T09:57:46.529Z,37.00
2019-04-21T10:00:18.747Z,34.70
2019-04-21T10:02:54.475Z,41.30
2019-04-21T10:05:16.903Z,38.20
2019-04-21T10:07:48.836Z,36.20
2019-04-21T10:10:19.338Z,36.40
2019-04-21T10:12:49.974Z,34.90
2019-04-21T10:15:23.271Z,36.80
2019-04-21T10:17:56.108Z,35.90
2019-04-21T10:20:26.583Z,38.60
2019-04-21T10:22:57.308Z,38.60
2019-04-21T10:25:28.360Z,37.20
2019-04-21T10:27:59.045Z,39.50
2019-04-21T10:30:30.685Z,37.60
2019-04-21T10:33:01.042Z,39.90
2019-04-21T10:35:31.360Z,37.60
2019-04-21T10:38:14.970Z,39.10
2019-04-21T10:40:35.543Z,38.80
2019-04-21T10:43:08.710Z,35.80
2019-04-21T10:45:39.172Z,36.10
2019-04-21T10:48:10.789Z,35.50
2019-04-21T10:50:41.374Z,35.30
2019-04-21T10:53:24.828Z,36.10
2019-04-21T10:56:09.398Z,35.70
2019-04-21T10:58:36.272Z,36.50
2019-04-21T11:01:14.630Z,39.10
2019-04-21T11:04:14.840Z,36.90
2019-04-21T11:06:39.031Z,38.00
2019-04-21T11:09:10.896Z,37.30
2019-04-21T11:11:44.625Z,39.00
2019-04-21T11:14:13.530Z,36.90
2019-04-21T11:16:46.270Z,38.40
2019-04-21T11:19:16.167Z,38.50
2019-04-21T11:21:47.067Z,39.20
2019-04-21T11:24:18.080Z,39.40
2019-04-21T11:26:49.687Z,38.60
2019-04-21T11:29:21.256Z,36.20
2019-04-21T11:31:51.735Z,37.50
2019-04-21T11:34:23.101Z,39.00
2019-04-21T11:36:54.387Z,37.60
2019-04-21T11:39:42.087Z,39.00
2019-04-21T11:42:11.925Z,40.70
2019-04-21T11:44:42.336Z,42.40
2019-04-21T11:47:22.716Z,38.00
2019-04-21T11:49:53.123Z,38.50
2019-04-21T11:52:23.464Z,42.20
2019-04-21T11:54:55.003Z,39.80
2019-04-21T11:57:28.718Z,37.80
2019-04-21T11:59:57.708Z,40.40
2019-04-21T12:02:28.107Z,39.50
2019-04-21T12:04:59.247Z,41.90
2019-04-21T12:07:29.630Z,39.60
2019-04-21T12:10:00.098Z,40.80
2019-04-21T12:12:30.463Z,40.40
2019-04-21T12:15:01.950Z,41.30
2019-04-21T12:17:32.370Z,43.40
2019-04-21T12:20:03.302Z,43.00
2019-04-21T12:22:34.450Z,41.10
2019-04-21T12:25:09.213Z,41.70
2019-04-21T12:27:40.090Z,40.30
2019-04-21T12:30:13.733Z,39.50
2019-04-21T12:33:12.125Z,40.00
2019-04-21T12:35:43.918Z,39.40
2019-04-21T12:38:14.323Z,37.90
2019-04-21T12:40:44.746Z,37.60
2019-04-21T12:43:15.038Z,38.50
2019-04-21T12:45:46.057Z,39.60
2019-04-21T12:48:17.919Z,39.50
2019-04-21T12:50:49.856Z,39.70
2019-04-21T12:53:21.434Z,38.10
2019-04-21T12:55:51.911Z,39.50
2019-04-21T12:58:23.523Z,39.70
2019-04-21T13:00:54.725Z,39.30
2019-04-21T13:03:26.803Z,38.90
2019-04-21T13:05:58.052Z,42.60
2019-04-21T13:08:30.266Z,39.80
2019-04-21T13:11:00.651Z,39.60
2019-04-21T13:13:32.106Z,39.90
2019-04-21T13:16:03.223Z,40.20
2019-04-21T13:18:33.773Z,41.30
2019-04-21T13:21:05.518Z,40.60
2019-04-21T13:23:36.974Z,40.50
2019-04-21T13:26:08.252Z,41.50
2019-04-21T13:28:40.428Z,41.00
2019-04-21T13:31:11.949Z,42.30
2019-04-21T13:33:42.395Z,38.90
2019-04-21T13:36:13.917Z,38.70
2019-04-21T13:39:33.358Z,41.90
2019-04-21T13:41:50.519Z,39.40
2019-04-21T13:44:13.250Z,41.70
2019-04-21T13:46:45.072Z,41.50
2019-04-21T13:49:17.057Z,39.60
2019-04-21T13:51:48.082Z,41.00
2019-04-21T13:54:19.772Z,41.90
2019-04-21T13:56:50.451Z,41.50
2019-04-21T13:59:22.110Z,42.60
2019-04-21T14:01:53.971Z,41.60
2019-04-21T14:04:25.280Z,40.70
2019-04-21T14:06:56.384Z,39.50
2019-04-21T14:09:37.922Z,39.70
2019-04-21T14:11:59.167Z,38.80
2019-04-21T14:14:30.404Z,39.10
2019-04-21T14:17:02.485Z,38.00
2019-04-21T14:19:33.193Z,41.30
2019-04-21T14:22:03.621Z,40.20
2019-04-21T14:24:35.027Z,39.20
2019-04-21T14:27:06.003Z,38.10
2019-04-21T14:29:37.680Z,39.70
2019-04-21T14:32:08.445Z,40.90
2019-04-21T14:34:39.817Z,40.60
2019-04-21T14:37:10.869Z,40.50
2019-04-21T14:39:50.248Z,41.10
2019-04-21T14:42:14.070Z,42.50
2019-04-21T14:44:45.090Z,41.10
2019-04-21T14:47:23.034Z,42.00
2019-04-21T14:50:24.430Z,40.70
2019-04-21T14:53:13.748Z,41.90
2019-04-21T14:55:45.865Z,41.40
2019-04-21T14:58:17.184Z,41.70
2019-04-21T15:00:52.946Z,39.00
2019-04-21T15:03:23.598Z,39.00
2019-04-21T15:05:55.501Z,40.30
2019-04-21T15:08:27.045Z,40.10
2019-04-21T15:10:58.821Z,40.00
2019-04-21T15:13:30.022Z,40.90
2019-04-21T15:16:00.806Z,38.80
2019-04-21T15:18:32.636Z,39.00
2019-04-21T15:21:03.739Z,40.20
2019-04-21T15:23:34.203Z,40.40
2019-04-21T15:26:05.992Z,39.60
2019-04-21T15:28:37.847Z,39.70
2019-04-21T15:31:12.697Z,40.80
2019-04-21T15:33:41.258Z,39.80
2019-04-21T15:36:12.969Z,39.30
2019-04-21T15:38:43.787Z,39.50
2019-04-21T15:41:14.491Z,39.30
2019-04-21T15:43:45.134Z,39.80
2019-04-21T15:46:15.578Z,38.90
2019-04-21T15:48:46.738Z,39.90
2019-04-21T15:51:17.855Z,39.90
2019-04-21T15:53:49.926Z,39.30
2019-04-21T15:56:24.986Z,39.50
2019-04-21T15:59:01.093Z,39.90
2019-04-21T16:01:39.017Z,39.90
2019-04-21T16:04:10.743Z,41.60
2019-04-21T16:06:41.620Z,41.80
2019-04-21T16:09:16.140Z,42.10
2019-04-21T16:11:44.135Z,41.50
2019-04-21T16:14:14.597Z,41.20
2019-04-21T16:16:45.384Z,41.50
2019-04-21T16:19:16.438Z,41.90
2019-04-21T16:21:48.583Z,42.10
2019-04-21T16:24:19.020Z,41.60
2019-04-21T16:26:50.693Z,41.90
2019-04-21T16:29:21.129Z,41.40
2019-04-21T16:31:53.159Z,42.00
2019-04-21T16:34:36.089Z,41.10
2019-04-21T16:36:55.962Z,40.50
2019-04-21T16:39:27.355Z,40.80
2019-04-21T16:41:58.321Z,41.60
2019-04-21T16:44:29.394Z,40.80
2019-04-21T16:47:01.215Z,41.50
2019-04-21T16:49:31.844Z,41.20
2019-04-21T16:52:18.319Z,41.70
2019-04-21T16:54:53.828Z,40.90
2019-04-21T16:57:31.855Z,41.90
2019-04-21T17:00:06.570Z,41.80
2019-04-21T17:02:37.057Z,41.90
2019-04-21T17:05:08.087Z,42.10
2019-04-21T17:07:38.794Z,43.00
2019-04-21T17:10:10.611Z,43.40
2019-04-21T17:12:41.699Z,44.20
2019-04-21T17:15:30.487Z,44.70
2019-04-21T17:18:05.632Z,45.30
2019-04-21T17:20:30.989Z,45.10
2019-04-21T17:22:49.496Z,45.50
2019-04-21T17:25:24.085Z,44.90
2019-04-21T17:27:53.258Z,44.90
2019-04-21T17:30:24.467Z,45.40
2019-04-21T17:32:55.465Z,45.70
2019-04-21T17:35:27.010Z,46.30
2019-04-21T17:37:58.337Z,46.80
2019-04-21T17:40:29.597Z,47.60
2019-04-21T17:43:05.510Z,47.90
2019-04-21T17:45:33.005Z,48.40
2019-04-21T17:48:08.622Z,49.50
2019-04-21T17:50:49.559Z,51.20
2019-04-21T17:53:30.401Z,51.00
2019-04-21T17:56:19.507Z,53.00
2019-04-21T17:58:49.650Z,55.40
2019-04-21T18:01:40.856Z,57.20
2019-04-21T18:04:00.055Z,58.60
2019-04-21T18:06:26.185Z,59.90
2019-04-21T18:09:04.310Z,61.20
2019-04-21T18:11:28.958Z,62.30
2019-04-21T18:13:44.545Z,63.30
2019-04-21T18:16:26.708Z,64.40
2019-04-21T18:18:48.670Z,65.00
2019-04-21T18:21:32.460Z,66.30
2019-04-21T18:24:10.765Z,67.50
2019-04-21T18:26:46.777Z,68.80
2019-04-21T18:29:09.567Z,70.30
2019-04-21T18:31:45.596Z,71.50
2019-04-21T18:34:32.372Z,72.70
2019-04-21T18:37:12.906Z,75.30
2019-04-21T18:39:55.802Z,75.70
2019-04-21T18:42:47.738Z,76.70
2019-04-21T18:48:36.197Z,79.10
2019-04-21T18:51:21.930Z,80.20
2019-04-21T18:54:15.743Z,81.50
2019-04-21T18:56:25.380Z,83.30
2019-04-21T18:58:56.528Z,84.50
2019-04-21T19:01:30.925Z,85.10
2019-04-21T19:04:00.314Z,86.30
2019-04-21T19:06:45.487Z,88.30
2019-04-21T19:09:21.549Z,89.50
2019-04-21T19:11:56.279Z,89.70
2019-04-21T19:14:33.387Z,90.20
2019-04-21T19:17:15.947Z,90.60
2019-04-21T19:22:21.685Z,92.00
2019-04-21T19:24:46.589Z,92.30
2019-04-21T19:29:52.155Z,92.40
2019-04-21T19:32:22.799Z,93.70
2019-04-21T19:34:34.769Z,95.00
2019-04-21T19:37:10.935Z,93.90
2019-04-21T19:39:49.059Z,94.60
2019-04-21T19:42:18.548Z,95.30
2019-04-21T19:44:56.544Z,97.20
2019-04-21T19:47:37.176Z,97.90
2019-04-21T19:50:01.904Z,99.40
2019-04-21T19:52:26.643Z,99.40
2019-04-21T19:54:50.105Z,98.70
2019-04-21T19:57:18.875Z,99.20
2019-04-21T19:59:53.845Z,99.50
2019-04-21T20:02:22.365Z,97.60
2019-04-21T20:05:01.507Z,98.60
2019-04-21T20:07:39.908Z,99.30
2019-04-21T20:10:21.290Z,99.90
2019-04-21T20:12:45.191Z,99.90
2019-04-21T20:15:28.531Z,99.90
2019-04-21T20:17:48.371Z,99.90
2019-04-21T20:20:06.840Z,99.90
2019-04-21T20:22:42.268Z,99.90
2019-04-21T20:25:14.297Z,99.90
2019-04-21T20:27:52.910Z,99.90
2019-04-21T20:30:33.041Z,99.90
2019-04-21T20:33:14.211Z,99.90
2019-04-21T20:35:44.852Z,99.90
2019-04-21T20:38:01.788Z,99.90
2019-04-21T20:40:30.852Z,99.90
2019-04-21T20:43:22.451Z,99.90
2019-04-21T20:45:48.909Z,99.90
2019-04-21T20:48:07.238Z,99.90
2019-04-21T20:50:41.782Z,99.90
2019-04-21T20:53:19.751Z,99.90
2019-04-21T20:55:48.985Z,99.90
2019-04-21T20:58:24.102Z,99.90
2019-04-21T21:01:21.948Z,99.90
2019-04-21T21:05:53.258Z,99.90
2019-04-21T21:08:35.736Z,99.90
2019-04-21T21:11:00.893Z,99.90
2019-04-21T21:13:52.031Z,99.90
2019-04-21T21:16:13.786Z,99.90
2019-04-21T21:21:11.148Z,99.90
2019-04-21T21:23:49.298Z,99.90
2019-04-21T21:26:21.860Z,99.90
2019-04-21T21:28:42.908Z,99.90
2019-04-21T21:31:26.578Z,99.90
2019-04-21T21:36:27.472Z,99.90
2019-04-21T21:39:03.159Z,99.90
2019-04-21T21:41:22.081Z,99.90
2019-04-21T21:43:51.491Z,99.90
2019-04-21T21:46:37.229Z,99.90
2019-04-21T21:49:02.023Z,99.90
2019-04-21T21:51:38.426Z,99.90
2019-04-21T21:53:54.740Z,99.90
2019-04-21T21:56:25.179Z,99.90
2019-04-21T21:58:56.992Z,99.90
2019-04-21T22:01:35.788Z,99.90
2019-04-21T22:04:09.232Z,99.90
2019-04-21T22:06:43.092Z,99.90
2019-04-21T22:09:06.217Z,99.90
2019-04-21T22:11:38.053Z,99.90
2019-04-21T22:14:12.169Z,99.90
2019-04-21T22:16:57.759Z,99.90
2019-04-21T22:19:36.783Z,99.90
2019-04-21T22:22:04.178Z,99.90
2019-04-21T22:24:35.143Z,99.90
2019-04-21T22:26:52.664Z,99.90
2019-04-21T22:29:23.538Z,99.90
2019-04-21T22:32:01.420Z,99.90
2019-04-21T22:34:30.296Z,99.90
2019-04-21T22:37:14.346Z,99.90
2019-04-21T22:39:49.701Z,99.90
2019-04-21T22:42:14.799Z,99.90
2019-04-21T22:44:34.418Z,99.90
2019-04-21T22:47:14.094Z,99.90
2019-04-21T22:49:37.248Z,99.90
2019-04-21T22:52:11.332Z,99.90
2019-04-21T22:54:42.863Z,99.90
2019-04-21T22:57:16.659Z,99.90
2019-04-21T22:59:46.338Z,99.90
2019-04-21T23:02:22.625Z,99.90
2019-04-21T23:04:53.035Z,99.90
2019-04-21T23:07:22.477Z,99.90
2019-04-21T23:09:51.807Z,99.90
2019-04-21T23:12:28.161Z,99.90
2019-04-21T23:15:03.412Z,99.90
2019-04-21T23:17:49.382Z,99.90
2019-04-21T23:20:17.911Z,99.90
2019-04-21T23:22:58.487Z,99.90
2019-04-21T23:25:23.295Z,99.90
2019-04-21T23:27:59.115Z,99.90
2019-04-21T23:30:34.005Z,99.90
2019-04-21T23:32:50.507Z,99.90
2019-04-21T23:35:25.782Z,99.90
2019-04-21T23:37:55.619Z,99.90
2019-04-21T23:40:21.808Z,99.90
2019-04-21T23:42:51.233Z,99.90
2019-04-21T23:45:25.268Z,99.90
2019-04-21T23:48:10.765Z,99.90
2019-04-21T23:50:37.643Z,99.90
2019-04-21T23:52:57.731Z,99.90
2019-04-21T23:55:29.310Z,99.90
2019-04-21T23:58:07.116Z,99.90
